Time;durP1;ratioP1;P1;durP2;ratioP2;P2;SDS_P1;SDS_P2;PMS_P1;PMS_P2;Temp;Humidity;BMP_temperature;BMP_pressure;BME280_temperature;BME280_humidity;BME280_pressure;Samples;Min_cycle;Max_cycle;Signal;HPM_P1;HPM_P2
2023/10/05 00:04:53;;;;;;;4.10;1.80;;;;;;;11.32;59.05;98670.63;10486901;28;20110;-73
2023/10/05 00:10:16;;;;;;;4.03;1.23;;;;;;;11.34;59.34;98665.91;10487215;28;20044;-73
2023/10/05 00:15:37;;;;;;;3.30;1.13;;;;;;;11.31;59.14;98652.38;10501547;28;20068;-72
2023/10/05 00:21:00;;;;;;;3.60;1.35;;;;;;;11.24;59.46;98648.34;10485976;28;20040;-72
2023/10/05 00:26:23;;;;;;;5.82;1.40;;;;;;;11.22;59.76;98656.59;10473372;28;20387;-73
2023/10/05 00:31:47;;;;;;;7.38;1.48;;;;;;;11.20;59.67;98653.63;10486328;28;20055;-73
2023/10/05 00:37:09;;;;;;;4.80;1.48;;;;;;;11.14;59.97;98647.56;10457956;28;20045;-73
2023/10/05 00:42:30;;;;;;;4.70;1.40;;;;;;;11.10;60.29;98636.81;10471232;28;20037;-72
2023/10/05 00:47:51;;;;;;;5.63;1.65;;;;;;;11.03;60.53;98634.84;10485159;28;20090;-73
2023/10/05 00:53:12;;;;;;;6.38;2.20;;;;;;;11.00;60.49;98633.19;10456371;28;20205;-73
2023/10/05 00:58:42;;;;;;;6.10;1.90;;;;;;;10.94;60.90;98635.50;10470837;28;20051;-72
2023/10/05 01:14:52;;;;;;;6.57;1.50;;;;;;;10.76;62.14;98628.44;10458353;28;20090;-74
2023/10/05 01:25:40;;;;;;;3.97;1.60;;;;;;;10.70;62.23;98623.09;10470754;28;20479;-74
2023/10/05 01:31:07;;;;;;;3.95;1.70;;;;;;;10.66;62.24;98622.03;10469784;28;20098;-73
2023/10/05 01:36:28;;;;;;;5.85;2.03;;;;;;;10.60;62.54;98623.00;10470311;28;20044;-73
2023/10/05 01:41:49;;;;;;;5.25;2.05;;;;;;;10.56;62.99;98610.78;10469417;28;20036;-73
2023/10/05 01:47:10;;;;;;;3.38;1.40;;;;;;;10.51;63.46;98615.28;10469624;28;20124;-72
2023/10/05 01:52:31;;;;;;;4.63;1.75;;;;;;;10.45;63.58;98600.84;10458417;28;20047;-73
2023/10/05 01:57:53;;;;;;;3.58;1.40;;;;;;;10.42;63.59;98604.03;10479011;28;20036;-74
2023/10/05 02:03:18;;;;;;;6.13;1.60;;;;;;;10.41;63.77;98611.69;10495477;28;20109;-72
2023/10/05 02:08:41;;;;;;;3.90;1.50;;;;;;;10.44;63.94;98612.59;10481865;28;20068;-73
2023/10/05 02:14:05;;;;;;;3.42;1.33;;;;;;;10.46;65.13;98616.28;10469072;28;20053;-71
2023/10/05 02:19:25;;;;;;;6.38;1.27;;;;;;;10.53;64.69;98603.56;10497396;28;20040;-73
2023/10/05 02:24:49;;;;;;;6.25;1.73;;;;;;;10.58;64.57;98603.31;10482296;28;20044;-73
2023/10/05 02:30:11;;;;;;;6.90;2.03;;;;;;;10.57;64.92;98601.84;10468630;28;20048;-73
2023/10/05 02:35:33;;;;;;;3.20;1.20;;;;;;;10.57;65.36;98598.31;10468411;28;20056;-74
2023/10/05 02:41:03;;;;;;;3.13;1.50;;;;;;;10.60;65.81;98597.16;10468912;28;20041;-73
2023/10/05 02:46:25;;;;;;;4.55;1.40;;;;;;;10.60;66.12;98595.09;10469034;28;20448;-73
2023/10/05 02:51:46;;;;;;;4.07;1.23;;;;;;;10.58;66.59;98589.34;10468295;28;20040;-71
2023/10/05 02:57:07;;;;;;;4.72;1.25;;;;;;;10.58;66.71;98578.19;10467797;28;20044;-71
2023/10/05 03:02:28;;;;;;;4.63;1.08;;;;;;;10.56;66.67;98575.25;10467569;28;20774;-73
2023/10/05 03:07:49;;;;;;;4.40;1.20;;;;;;;10.59;66.92;98582.44;10468310;28;20045;-73
2023/10/05 03:13:13;;;;;;;3.78;1.40;;;;;;;10.62;67.13;98572.22;10468522;28;20040;-73
2023/10/05 03:18:37;;;;;;;6.55;1.42;;;;;;;10.64;67.17;98574.41;10489086;28;20398;-73
2023/10/05 03:23:58;;;;;;;3.60;1.15;;;;;;;10.67;67.39;98585.16;10461795;28;20536;-73
2023/10/05 03:29:21;;;;;;;4.22;1.20;;;;;;;10.69;67.26;98581.78;10474994;28;20041;-73
2023/10/05 03:34:55;;;;;;;4.15;1.15;;;;;;;10.70;67.60;98580.47;10488017;28;20043;-72
2023/10/05 03:40:24;;;;;;;3.78;1.10;;;;;;;10.68;67.75;98567.09;10502689;28;20087;-72
2023/10/05 03:45:46;;;;;;;5.22;1.38;;;;;;;10.66;67.53;98569.72;10502855;28;20070;-74
2023/10/05 03:51:17;;;;;;;5.53;1.38;;;;;;;10.59;67.77;98574.06;10487651;28;20048;-71
2023/10/05 03:56:42;;;;;;;6.50;1.10;;;;;;;10.55;68.18;98573.75;10462240;28;20612;-73
2023/10/05 04:02:06;;;;;;;3.65;1.40;;;;;;;10.50;68.53;98571.94;10460652;28;20052;-73
2023/10/05 04:07:28;;;;;;;4.23;1.87;;;;;;;10.48;68.62;98585.00;10501823;28;20048;-72
2023/10/05 04:12:51;;;;;;;4.25;1.30;;;;;;;10.47;68.71;98581.47;10486752;28;20051;-71
2023/10/05 04:18:15;;;;;;;3.92;1.33;;;;;;;10.48;68.82;98577.38;10487038;28;20040;-72
2023/10/05 04:23:36;;;;;;;4.15;1.50;;;;;;;10.48;68.82;98573.84;10472919;28;20041;-73
2023/10/05 04:28:57;;;;;;;4.53;1.30;;;;;;;10.42;69.07;98571.31;10500835;28;20047;-73
2023/10/05 04:34:18;;;;;;;4.07;1.25;;;;;;;10.43;69.03;98572.78;10458399;28;20065;-73
2023/10/05 04:39:43;;;;;;;5.95;1.40;;;;;;;10.37;69.08;98574.34;10459074;28;20043;-73
2023/10/05 04:45:11;;;;;;;5.03;1.25;;;;;;;10.37;69.06;98569.50;10472853;28;20036;-72
2023/10/05 04:51:45;;;;;;;4.72;1.42;;;;;;;10.37;69.56;98569.50;10410462;28;20455;-72
2023/10/05 04:57:22;;;;;;;4.13;1.10;;;;;;;10.38;69.50;98559.81;10413168;28;20064;-73
2023/10/05 05:08:23;;;;;;;5.88;1.63;;;;;;;10.42;69.24;98562.94;10398760;28;20058;-73
2023/10/05 05:13:48;;;;;;;3.55;1.33;;;;;;;10.39;69.70;98564.06;10371878;28;20073;-73
2023/10/05 05:19:10;;;;;;;4.78;1.25;;;;;;;10.49;69.63;98552.97;10398900;28;20099;-71
2023/10/05 05:24:32;;;;;;;6.10;2.10;;;;;;;10.68;69.11;98555.94;10392172;28;20437;-73
2023/10/05 05:29:53;;;;;;;6.90;2.10;;;;;;;10.87;69.58;98552.53;10470738;28;20048;-73
2023/10/05 05:35:16;;;;;;;6.70;2.30;;;;;;;11.99;69.51;98544.34;10483970;28;20060;-73
2023/10/05 05:40:40;;;;;;;7.68;1.63;;;;;;;15.08;65.71;98540.28;10484401;28;20086;-72
2023/10/05 05:46:02;;;;;;;5.88;2.65;;;;;;;17.83;59.85;98552.44;10469708;28;20433;-73
2023/10/05 05:51:24;;;;;;;4.47;2.10;;;;;;;19.89;54.66;98543.22;10483372;28;20048;-73
2023/10/05 05:56:45;;;;;;;7.97;2.35;;;;;;;20.48;49.18;98552.13;10482547;28;20079;-73
2023/10/05 06:02:07;;;;;;;7.28;2.30;;;;;;;20.78;45.25;98563.25;10482341;28;20525;-73
2023/10/05 06:07:28;;;;;;;5.95;2.38;;;;;;;20.46;43.17;98568.31;10468591;28;20120;-74
2023/10/05 06:12:51;;;;;;;7.20;2.40;;;;;;;20.39;42.70;98569.41;10482522;28;20410;-74
2023/10/05 06:18:12;;;;;;;6.03;2.63;;;;;;;23.07;41.79;98573.66;10482562;28;20593;-73
2023/10/05 06:23:34;;;;;;;6.22;2.50;;;;;;;23.80;36.44;98571.53;10468261;28;20277;-73
2023/10/05 06:28:55;;;;;;;9.48;2.58;;;;;;;23.00;38.41;98574.84;10468069;28;20065;-73
2023/10/05 06:34:16;;;;;;;5.22;2.17;;;;;;;27.36;34.05;98565.59;10454414;28;20045;-73
2023/10/05 06:39:37;;;;;;;6.80;2.25;;;;;;;29.60;28.81;98576.41;10467390;28;20047;-73
2023/10/05 06:44:58;;;;;;;8.27;2.13;;;;;;;29.68;27.19;98569.25;10467823;28;20047;-74
2023/10/05 06:50:21;;;;;;;5.50;1.90;;;;;;;29.91;27.19;98567.91;10486054;28;20132;-73
2023/10/05 06:55:41;;;;;;;4.75;2.35;;;;;;;31.32;24.45;98586.09;10504085;28;20048;-74
2023/10/05 07:01:03;;;;;;;6.22;2.60;;;;;;;32.77;22.06;98573.88;10489044;28;20044;-74
2023/10/05 07:06:24;;;;;;;4.43;2.40;;;;;;;30.54;22.84;98581.75;10504048;28;20540;-73
2023/10/05 07:11:45;;;;;;;5.50;2.60;;;;;;;27.58;24.66;98579.50;10475079;28;20055;-73
2023/10/05 07:17:06;;;;;;;6.70;2.50;;;;;;;24.86;27.06;98585.75;10474422;28;20064;-73
2023/10/05 07:22:28;;;;;;;5.90;2.42;;;;;;;23.02;29.53;98577.75;10503576;28;20041;-73
2023/10/05 07:27:51;;;;;;;6.15;2.22;;;;;;;22.14;31.96;98582.63;10488655;28;20067;-73
2023/10/05 07:33:11;;;;;;;5.28;2.33;;;;;;;26.42;28.92;98583.41;10474271;28;20056;-74
2023/10/05 07:38:38;;;;;;;4.68;2.30;;;;;;;30.32;24.85;98573.81;10474858;28;20041;-73
2023/10/05 07:43:59;;;;;;;5.72;2.50;;;;;;;30.55;21.99;98577.44;10502354;28;20041;-74
2023/10/05 07:49:28;;;;;;;6.75;2.53;;;;;;;28.54;24.45;98589.25;10488478;28;20429;-73
2023/10/05 07:54:51;;;;;;;;;;;;;;;27.06;25.04;98565.91;10487838;28;20075;-73
2023/10/05 08:00:13;;;;;;;;;;;;;;;24.34;28.16;98571.63;10500624;28;19920;-72
2023/10/05 08:05:34;;;;;;;8.93;2.57;;;;;;;22.74;30.51;98577.53;10486553;28;20266;-73
2023/10/05 08:10:55;;;;;;;6.85;2.70;;;;;;;21.87;31.95;98583.75;10472907;28;20055;-73
2023/10/05 08:16:16;;;;;;;6.45;2.35;;;;;;;21.86;32.52;98590.84;10486906;28;20067;-73
2023/10/05 08:21:38;;;;;;;6.13;2.33;;;;;;;26.36;32.43;98600.47;10500779;28;20064;-73
2023/10/05 08:26:59;;;;;;;6.00;2.58;;;;;;;34.25;21.34;98601.25;10486280;28;20120;-73
2023/10/05 08:32:24;;;;;;;7.85;2.58;;;;;;;33.20;19.97;98598.09;10485467;28;20060;-74
2023/10/05 08:37:53;;;;;;;4.75;2.47;;;;;;;29.68;22.13;98604.50;10485969;28;20071;-74
2023/10/05 08:43:16;;;;;;;5.85;2.17;;;;;;;28.05;23.95;98603.06;10472951;28;20460;-73
2023/10/05 08:48:38;;;;;;;5.65;2.47;;;;;;;25.66;26.28;98594.75;10471576;28;20060;-73
2023/10/05 08:54:02;;;;;;;10.57;2.63;;;;;;;24.46;28.03;98606.16;10470955;28;20068;-74
2023/10/05 08:59:26;;;;;;;8.85;2.65;;;;;;;24.14;28.75;98606.72;10484658;28;20071;-74
2023/10/05 09:04:51;;;;;;;6.07;2.42;;;;;;;22.64;31.30;98597.13;10470974;28;20570;-74
2023/10/05 09:10:25;;;;;;;6.55;2.63;;;;;;;23.80;32.29;98611.44;10469854;28;20041;-73
2023/10/05 09:15:50;;;;;;;7.13;2.45;;;;;;;34.53;24.20;98608.84;10456590;28;20406;-74
2023/10/05 09:21:12;;;;;;;6.00;2.55;;;;;;;40.49;17.83;98600.88;10483813;28;20060;-76
2023/10/05 09:26:39;;;;;;;5.20;2.33;;;;;;;45.44;13.02;98602.69;10470455;28;20116;-76
2023/10/05 09:31:59;;;;;;;5.55;2.40;;;;;;;46.43;11.07;98589.13;10484735;28;20123;-77
2023/10/05 09:37:23;;;;;;;3.45;2.13;;;;;;;46.82;9.39;98602.09;10498172;28;20068;-79
2023/10/05 09:42:44;;;;;;;6.38;2.35;;;;;;;46.00;9.44;98597.75;10469670;28;20100;-78
2023/10/05 09:48:07;;;;;;;8.52;2.60;;;;;;;44.65;9.39;98592.63;10469035;28;20036;-77
2023/10/05 09:53:29;;;;;;;4.85;2.55;;;;;;;46.74;9.10;98596.69;10483010;28;20076;-77
2023/10/05 09:58:53;;;;;;;4.80;2.70;;;;;;;47.75;7.69;98580.19;10469346;28;20078;-76
2023/10/05 10:04:34;;;;;;;5.40;2.70;;;;;;;47.53;8.16;98578.78;10468931;28;20056;-77
2023/10/05 10:09:56;;;;;;;6.28;2.80;;;;;;;47.48;7.70;98592.44;10484776;28;20049;-77
2023/10/05 10:15:28;;;;;;;6.75;2.80;;;;;;;48.43;7.65;98584.94;10482358;28;20490;-77
2023/10/05 10:20:56;;;;;;;5.55;2.60;;;;;;;49.48;7.24;98569.59;10469168;28;20075;-78
2023/10/05 10:26:19;;;;;;;4.57;3.10;;;;;;;47.29;7.84;98558.28;10488803;28;20044;-77
2023/10/05 10:31:47;;;;;;;5.30;2.88;;;;;;;45.08;8.24;98553.25;10490636;28;20068;-77
2023/10/05 10:37:10;;;;;;;8.05;3.20;;;;;;;38.05;11.24;98557.47;10490920;28;20064;-75
2023/10/05 10:42:49;;;;;;;5.60;3.40;;;;;;;37.77;13.41;98561.94;10476063;28;20056;-77
2023/10/05 10:48:20;;;;;;;6.47;3.13;;;;;;;35.71;13.54;98548.78;10504549;28;20410;-76
2023/10/05 10:53:41;;;;;;;5.53;3.30;;;;;;;33.82;15.59;98549.66;10476625;28;20075;-77
2023/10/05 10:59:13;;;;;;;6.68;3.30;;;;;;;34.65;16.42;98532.59;10475587;28;20483;-77
2023/10/05 11:04:36;;;;;;;5.10;2.60;;;;;;;38.43;14.42;98516.25;10478335;28;20052;-76
2023/10/05 11:10:19;;;;;;;5.13;2.70;;;;;;;38.28;13.15;98525.44;10491732;28;20064;-76
2023/10/05 11:15:59;;;;;;;6.82;3.30;;;;;;;36.27;14.20;98519.25;10475393;28;20049;-77
2023/10/05 11:21:24;;;;;;;9.40;3.58;;;;;;;37.51;14.46;98516.09;10477012;28;20540;-77
2023/10/05 11:32:21;;;;;;;7.20;3.08;;;;;;;37.39;13.30;98493.16;10489153;28;20190;-77
2023/10/05 11:38:03;;;;;;;5.28;2.95;;;;;;;35.84;13.48;98485.34;10476931;28;20040;-74
2023/10/05 11:43:26;;;;;;;7.65;2.83;;;;;;;33.61;15.61;98487.00;10502435;28;20072;-74
2023/10/05 11:48:56;;;;;;;7.18;3.05;;;;;;;30.98;18.16;98483.06;10502460;28;20064;-73
2023/10/05 11:54:19;;;;;;;7.97;3.13;;;;;;;29.68;19.62;98480.81;10501924;28;20471;-74
2023/10/05 11:59:42;;;;;;;7.20;3.30;;;;;;;28.49;20.79;98487.28;10486995;28;20544;-73
2023/10/05 12:05:03;;;;;;;8.55;2.95;;;;;;;27.06;22.58;98485.69;10501400;28;20072;-72
2023/10/05 12:10:24;;;;;;;;;;;;;;;26.62;24.36;98484.97;10501682;28;20083;-72
2023/10/05 12:15:45;;;;;;;8.15;3.38;;;;;;;26.51;24.53;98490.53;10486221;28;19926;-72
2023/10/05 12:21:06;;;;;;;5.68;2.78;;;;;;;25.28;26.05;98483.19;10500736;28;20118;-73
2023/10/05 12:26:29;;;;;;;7.13;2.90;;;;;;;24.53;26.77;98485.81;10485696;28;20124;-72
2023/10/05 12:31:50;;;;;;;6.95;2.97;;;;;;;23.75;28.02;98481.63;10500292;28;20118;-73
2023/10/05 12:37:17;;;;;;;8.70;3.15;;;;;;;23.57;28.39;98482.56;10485044;28;20060;-73
2023/10/05 12:42:37;;;;;;;8.25;2.80;;;;;;;23.62;28.87;98481.28;10485585;28;20072;-73
2023/10/05 12:47:58;;;;;;;6.57;2.85;;;;;;;23.57;28.77;98479.69;10470594;28;20048;-73
2023/10/05 12:53:20;;;;;;;10.15;3.20;;;;;;;23.39;29.15;98477.06;10484422;28;20071;-73
2023/10/05 12:58:41;;;;;;;6.95;2.90;;;;;;;22.97;29.08;98472.94;10499197;28;20115;-73
2023/10/05 13:04:05;;;;;;;10.45;2.83;;;;;;;23.12;29.44;98469.88;10470337;28;20056;-73
2023/10/05 13:09:28;;;;;;;6.28;2.42;;;;;;;23.23;28.85;98473.00;10499173;28;20083;-72
2023/10/05 13:14:48;;;;;;;;;;;;;;;23.49;28.54;98476.63;10499138;28;20547;-72
2023/10/05 13:20:14;;;;;;;7.70;2.50;;;;;;;23.68;28.17;98478.59;10498502;28;19950;-74
2023/10/05 13:25:36;;;;;;;6.47;2.28;;;;;;;23.36;27.78;98472.00;10498489;28;20115;-73
2023/10/05 13:30:57;;;;;;;7.65;2.85;;;;;;;23.00;27.81;98478.06;10456091;28;20072;-72
2023/10/05 13:36:19;;;;;;;8.00;2.90;;;;;;;22.50;28.03;98486.44;10483065;28;20045;-73
2023/10/05 13:41:46;;;;;;;5.20;2.03;;;;;;;22.30;28.63;98480.09;10497908;28;20121;-73
2023/10/05 13:47:09;;;;;;;8.90;2.97;;;;;;;22.09;28.85;98473.00;10471188;28;20051;-73
2023/10/05 13:52:33;;;;;;;;;;;;;;;21.87;29.59;98478.63;10469598;28;20094;-72
2023/10/05 13:57:54;;;;;;;7.13;2.45;;;;;;;21.54;29.65;98484.56;10483129;28;19952;-72
2023/10/05 14:03:15;;;;;;;6.03;2.30;;;;;;;21.21;30.14;98477.63;10468927;28;20131;-73
2023/10/05 14:08:36;;;;;;;5.55;1.95;;;;;;;21.01;31.08;98476.88;10468521;28;20146;-73
2023/10/05 14:13:57;;;;;;;6.13;2.58;;;;;;;20.82;30.76;98476.19;10482513;28;20526;-72
2023/10/05 14:19:19;;;;;;;6.32;2.42;;;;;;;20.57;31.58;98477.34;10468071;28;20045;-73
2023/10/05 14:24:45;;;;;;;;;;;;;;;20.34;32.67;98488.41;10469176;28;20048;-73
2023/10/05 14:30:06;;;;;;;5.47;1.98;;;;;;;20.07;32.52;98495.06;10496796;28;20003;-73
2023/10/05 14:35:27;;;;;;;6.28;1.90;;;;;;;19.91;33.23;98497.97;10481956;28;20060;-72
2023/10/05 14:40:53;;;;;;;6.32;1.55;;;;;;;19.69;33.33;98495.63;10482028;28;20060;-72
2023/10/05 14:46:14;;;;;;;5.07;1.40;;;;;;;19.35;33.53;98496.91;10496695;28;20120;-73
2023/10/05 14:51:35;;;;;;;6.18;1.73;;;;;;;19.01;33.55;98496.03;10467583;28;20041;-73
2023/10/05 14:56:56;;;;;;;5.60;1.35;;;;;;;18.76;33.91;98499.84;10496411;28;20063;-73
2023/10/05 15:02:17;;;;;;;4.40;1.40;;;;;;;18.46;34.82;98505.47;10481213;28;20144;-73
2023/10/05 15:07:40;;;;;;;4.22;1.10;;;;;;;18.36;35.11;98510.63;10481030;28;20041;-73
2023/10/05 15:13:01;;;;;;;5.30;1.30;;;;;;;18.30;35.36;98511.06;10474519;28;20048;-72
2023/10/05 15:18:22;;;;;;;4.30;1.35;;;;;;;18.13;35.49;98505.22;10474687;28;20485;-72
2023/10/05 15:23:42;;;;;;;4.63;1.60;;;;;;;17.87;35.62;98511.03;10474486;28;20143;-71
2023/10/05 15:29:05;;;;;;;4.25;1.40;;;;;;;17.66;36.35;98516.94;10474272;28;20048;-72
2023/10/05 15:34:26;;;;;;;6.25;1.10;;;;;;;17.40;36.99;98522.69;10503405;28;20056;-73
2023/10/05 15:39:47;;;;;;;4.97;1.35;;;;;;;17.19;37.30;98522.97;10487838;28;20052;-74
2023/10/05 15:45:09;;;;;;;5.75;1.52;;;;;;;16.94;37.80;98520.91;10503006;28;20064;-74
2023/10/05 15:50:31;;;;;;;6.75;1.45;;;;;;;16.72;38.13;98523.22;10487681;28;20040;-73
2023/10/05 15:55:52;;;;;;;3.20;0.98;;;;;;;16.49;38.48;98537.38;10487212;28;20114;-72
2023/10/05 16:01:13;;;;;;;4.97;1.30;;;;;;;16.33;39.15;98530.81;10473086;28;20119;-72
2023/10/05 16:06:35;;;;;;;4.65;1.33;;;;;;;16.12;40.20;98537.38;10486473;28;20086;-72
2023/10/05 16:11:57;;;;;;;4.05;1.35;;;;;;;15.90;40.66;98539.59;10486771;28;20049;-72
2023/10/05 16:17:18;;;;;;;4.60;1.40;;;;;;;15.72;40.80;98554.03;10473273;28;20441;-73
2023/10/05 16:22:40;;;;;;;5.88;1.95;;;;;;;15.53;41.32;98559.88;10457844;28;20044;-73
2023/10/05 16:28:02;;;;;;;4.75;1.65;;;;;;;15.39;42.00;98565.38;10472672;28;20052;-73
2023/10/05 16:33:23;;;;;;;9.40;1.58;;;;;;;15.20;42.65;98573.31;10486006;28;20044;-73
2023/10/05 16:38:44;;;;;;;7.10;1.52;;;;;;;15.03;42.96;98569.47;10485751;28;20528;-72
2023/10/05 16:44:05;;;;;;;5.28;1.60;;;;;;;14.94;43.19;98575.91;10444355;28;20060;-72
2023/10/05 16:49:26;;;;;;;4.13;1.23;;;;;;;14.83;43.78;98579.41;10457435;28;20462;-73
2023/10/05 16:54:47;;;;;;;6.40;2.35;;;;;;;14.78;43.98;98572.09;10444343;28;20064;-72
2023/10/05 17:00:22;;;;;;;6.43;2.10;;;;;;;14.73;44.11;98578.78;10457155;28;20137;-73
2023/10/05 17:05:43;;;;;;;6.95;2.35;;;;;;;14.75;44.57;98581.72;10484683;28;20056;-73
2023/10/05 17:11:03;;;;;;;6.43;1.73;;;;;;;14.82;44.63;98587.13;10470448;28;20068;-73
2023/10/05 17:16:28;;;;;;;3.60;1.52;;;;;;;14.80;44.63;98600.31;10456428;28;20040;-72
2023/10/05 17:21:49;;;;;;;6.50;1.73;;;;;;;14.77;45.00;98587.47;10470436;28;20106;-72
2023/10/05 17:27:13;;;;;;;7.10;2.00;;;;;;;14.59;45.12;98592.66;10469861;28;20044;-71
2023/10/05 17:32:34;;;;;;;6.30;1.83;;;;;;;14.45;45.40;98600.88;10484334;28;20097;-73
2023/10/05 17:37:56;;;;;;;5.40;1.83;;;;;;;14.29;45.81;98594.16;10483738;28;20137;-73
2023/10/05 17:43:17;;;;;;;6.45;2.25;;;;;;;14.18;45.81;98597.63;10483147;28;20126;-73
2023/10/05 17:48:38;;;;;;;6.85;2.33;;;;;;;14.04;46.05;98592.53;10483393;28;20064;-73
2023/10/05 17:53:59;;;;;;;5.97;2.28;;;;;;;13.91;46.44;98595.84;10482763;28;20045;-73
2023/10/05 17:59:20;;;;;;;4.97;2.22;;;;;;;13.78;47.25;98599.16;10498097;28;20094;-73
2023/10/05 18:04:41;;;;;;;6.32;1.92;;;;;;;13.64;47.32;98601.00;10482828;28;20079;-72
2023/10/05 18:10:03;;;;;;;5.78;2.08;;;;;;;13.54;47.90;98608.72;10455421;28;20111;-73
2023/10/05 18:15:24;;;;;;;8.38;2.88;;;;;;;13.45;47.65;98602.53;10468789;28;20067;-72
2023/10/05 18:20:45;;;;;;;7.78;2.55;;;;;;;13.36;48.63;98610.97;10497349;28;20071;-72
2023/10/05 18:26:06;;;;;;;7.55;2.10;;;;;;;13.29;48.26;98612.59;10482601;28;20052;-73
2023/10/05 18:31:28;;;;;;;5.28;2.42;;;;;;;13.17;48.79;98620.13;10468775;28;20048;-73
2023/10/05 18:36:51;;;;;;;;;;;;;;;13.13;49.85;98622.66;10483711;28;20036;-73
2023/10/05 18:42:14;;;;;;;5.45;2.08;;;;;;;13.08;49.48;98626.47;10496989;28;19920;-72
2023/10/05 18:47:35;;;;;;;5.72;2.70;;;;;;;12.98;50.44;98628.56;10488777;28;20049;-73
2023/10/05 18:52:55;;;;;;;6.57;2.15;;;;;;;12.89;50.25;98633.56;10489884;28;20059;-71
2023/10/05 18:58:16;;;;;;;5.43;2.10;;;;;;;12.84;50.78;98640.22;10476297;28;20072;-72
2023/10/05 19:03:37;;;;;;;5.60;2.00;;;;;;;12.76;50.44;98650.84;10504506;28;20076;-73
2023/10/05 19:09:02;;;;;;;3.75;1.73;;;;;;;12.69;50.62;98645.38;10489545;28;20041;-73
2023/10/05 19:14:23;;;;;;;6.05;2.22;;;;;;;12.62;50.89;98644.19;10504695;28;20075;-73
2023/10/05 19:19:44;;;;;;;6.32;1.90;;;;;;;12.58;51.04;98644.63;10503786;28;20467;-74
2023/10/05 19:25:05;;;;;;;3.85;1.75;;;;;;;12.54;51.90;98654.78;10488998;28;20109;-73
2023/10/05 19:30:26;;;;;;;7.00;1.88;;;;;;;12.47;52.14;98656.41;10488362;28;20037;-72
2023/10/05 19:35:47;;;;;;;7.07;2.25;;;;;;;12.40;52.45;98662.13;10474338;28;20044;-73
2023/10/05 19:41:08;;;;;;;5.18;1.88;;;;;;;12.31;52.98;98655.91;10488041;28;20055;-72
2023/10/05 19:46:29;;;;;;;6.90;1.83;;;;;;;12.34;53.29;98670.81;10503774;28;20049;-73
2023/10/05 19:51:50;;;;;;;7.00;2.00;;;;;;;12.28;53.96;98667.56;10487906;28;20072;-73
2023/10/05 19:57:13;;;;;;;3.80;1.65;;;;;;;12.21;53.99;98674.75;10473976;28;20048;-72
2023/10/05 20:02:33;;;;;;;4.97;1.70;;;;;;;12.16;54.69;98677.81;10502361;28;20395;-72
2023/10/05 20:07:57;;;;;;;7.28;2.13;;;;;;;12.13;54.89;98685.31;10501826;28;20048;-73
2023/10/05 20:13:18;;;;;;;4.93;1.58;;;;;;;12.10;55.52;98678.09;10501907;28;20105;-72
2023/10/05 20:18:40;;;;;;;6.07;2.00;;;;;;;12.11;56.04;98678.84;10473042;28;20037;-72
2023/10/05 20:24:00;;;;;;;5.55;1.65;;;;;;;12.07;56.22;98679.28;10501313;28;20040;-73
2023/10/05 20:29:30;;;;;;;6.20;1.92;;;;;;;12.05;56.30;98684.69;10472593;28;20040;-73
2023/10/05 20:34:51;;;;;;;5.68;1.67;;;;;;;12.00;56.77;98680.13;10500954;28;20052;-73
2023/10/05 20:40:12;;;;;;;5.38;1.60;;;;;;;12.00;57.05;98691.31;10486107;28;20497;-73
2023/10/05 20:45:36;;;;;;;4.65;1.60;;;;;;;12.02;57.21;98697.06;10501305;28;20036;-73
2023/10/05 20:50:57;;;;;;;6.55;1.92;;;;;;;11.94;57.77;98702.03;10491406;28;20048;-73
2023/10/05 20:56:19;;;;;;;8.52;1.80;;;;;;;11.93;58.44;98700.56;10464575;28;20048;-73
2023/10/05 21:01:40;;;;;;;7.63;1.73;;;;;;;11.90;58.07;98704.53;10482517;28;20087;-75
2023/10/05 21:07:06;;;;;;;5.20;1.52;;;;;;;11.84;58.51;98706.84;10486593;28;20041;-73
2023/10/05 21:12:27;;;;;;;6.85;1.80;;;;;;;11.82;59.33;98699.03;10500350;28;20253;-73
2023/10/05 21:17:49;;;;;;;5.53;1.60;;;;;;;11.84;59.52;98710.38;10499165;28;20041;-73
2023/10/05 21:23:09;;;;;;;7.10;1.70;;;;;;;11.88;59.85;98705.13;10470197;28;20489;-73
2023/10/05 21:28:30;;;;;;;6.20;1.73;;;;;;;12.01;60.07;98710.31;10469926;28;20044;-73
2023/10/05 21:33:51;;;;;;;8.15;1.88;;;;;;;12.07;60.12;98701.66;10483882;28;20185;-73
2023/10/05 21:39:12;;;;;;;5.10;1.95;;;;;;;12.14;60.09;98702.84;10483573;28;20075;-71
2023/10/05 21:44:33;;;;;;;5.85;1.67;;;;;;;12.18;59.99;98709.50;10483296;28;20435;-72
2023/10/05 21:49:54;;;;;;;4.07;1.73;;;;;;;12.17;60.17;98702.44;10455394;28;20064;-73
2023/10/05 21:55:15;;;;;;;6.78;2.00;;;;;;;12.17;60.52;98707.31;10469108;28;20048;-73
2023/10/05 22:00:48;;;;;;;5.78;1.88;;;;;;;12.16;60.45;98700.97;10441269;28;20044;-71
2023/10/05 22:06:09;;;;;;;5.90;1.80;;;;;;;12.10;60.64;98702.56;10471891;28;20498;-73
2023/10/05 22:11:30;;;;;;;3.85;1.52;;;;;;;12.07;60.78;98700.94;10455108;28;20044;-73
2023/10/05 22:16:51;;;;;;;9.30;2.00;;;;;;;12.02;61.09;98713.84;10482572;28;20041;-71
2023/10/05 22:22:14;;;;;;;4.47;1.70;;;;;;;12.02;61.19;98702.66;10489143;28;20040;-71
2023/10/05 22:27:35;;;;;;;6.80;1.73;;;;;;;11.89;61.25;98706.59;10477626;28;20037;-73
2023/10/05 22:32:56;;;;;;;5.22;1.70;;;;;;;11.85;61.41;98711.13;10505761;28;20097;-73
2023/10/05 22:38:17;;;;;;;6.28;1.90;;;;;;;11.82;61.62;98701.84;10463070;28;20051;-73
2023/10/05 22:43:49;;;;;;;7.53;1.67;;;;;;;11.83;61.59;98706.13;10491866;28;20093;-72
2023/10/05 22:49:10;;;;;;;8.13;1.52;;;;;;;11.81;61.86;98714.34;10476275;28;20540;-72
2023/10/05 22:54:31;;;;;;;7.88;2.08;;;;;;;11.86;62.10;98710.53;10504685;28;20090;-72
2023/10/05 22:59:52;;;;;;;5.38;1.52;;;;;;;11.93;61.99;98709.69;10489541;28;20490;-73
2023/10/05 23:05:13;;;;;;;5.80;1.83;;;;;;;11.94;62.18;98710.44;10475670;28;20502;-72
2023/10/05 23:10:35;;;;;;;5.60;1.55;;;;;;;11.92;62.31;98715.88;10489617;28;20052;-73
2023/10/05 23:15:57;;;;;;;6.30;1.77;;;;;;;11.91;62.49;98714.41;10461644;28;20546;-73
2023/10/05 23:21:18;;;;;;;9.38;1.83;;;;;;;11.93;62.64;98717.34;10488650;28;20036;-73
2023/10/05 23:26:40;;;;;;;7.78;1.67;;;;;;;11.93;62.33;98726.47;10503494;28;20072;-73
2023/10/05 23:32:01;;;;;;;5.63;1.83;;;;;;;11.96;62.67;98730.16;10474153;28;20041;-73
2023/10/05 23:37:22;;;;;;;7.93;1.50;;;;;;;11.94;62.58;98733.56;10474565;28;20059;-72
2023/10/05 23:42:43;;;;;;;9.65;1.67;;;;;;;11.84;62.86;98743.94;10503140;28;20048;-72
2023/10/05 23:48:07;;;;;;;8.60;1.85;;;;;;;11.76;62.74;98743.28;10460175;28;20059;-72
2023/10/05 23:53:28;;;;;;;;;;;;;;;11.71;63.48;98752.69;10488735;28;20129;-73
2023/10/05 23:58:49;;;;;;;5.28;1.75;;;;;;;11.68;63.21;98762.97;10502434;28;19920;-73
